createdAt,value
2022-10-06T00:01:18.227Z,91.41
2022-10-06T00:03:47.724Z,91.16
2022-10-06T00:06:18.693Z,91.05
2022-10-06T00:08:49.512Z,91.38
2022-10-06T00:11:18.547Z,91.39
2022-10-06T00:13:47.716Z,91.51
2022-10-06T00:16:21.814Z,91.38
2022-10-06T00:18:50.610Z,91.54
2022-10-06T00:21:19.557Z,91.32
2022-10-06T00:23:49.581Z,91.44
2022-10-06T00:26:18.230Z,91.49
2022-10-06T00:28:49.170Z,91.53
2022-10-06T00:31:19.625Z,91.43
2022-10-06T00:33:50.819Z,91.63
2022-10-06T00:36:19.755Z,91.92
2022-10-06T00:38:51.294Z,91.91
2022-10-06T00:41:20.116Z,92.19
2022-10-06T00:43:53.016Z,91.97
2022-10-06T00:46:29.543Z,92.19
2022-10-06T00:49:07.602Z,91.98
2022-10-06T00:51:39.681Z,91.97
2022-10-06T00:54:11.514Z,92.06
2022-10-06T00:56:41.199Z,92.10
2022-10-06T00:59:13.896Z,92.06
2022-10-06T01:01:47.920Z,92.14
2022-10-06T01:04:18.743Z,92.13
2022-10-06T01:06:53.063Z,92.38
2022-10-06T01:09:25.395Z,92.40
2022-10-06T01:11:57.261Z,92.31
2022-10-06T01:14:26.714Z,91.84
2022-10-06T01:17:01.925Z,91.95
2022-10-06T01:19:47.421Z,91.68
2022-10-06T01:22:21.401Z,91.70
2022-10-06T01:24:53.260Z,91.58
2022-10-06T01:27:26.785Z,91.68
2022-10-06T01:29:57.204Z,91.80
2022-10-06T01:32:32.835Z,91.41
2022-10-06T01:35:01.876Z,91.50
2022-10-06T01:37:31.930Z,91.74
2022-10-06T01:40:02.176Z,91.81
2022-10-06T01:42:33.728Z,91.62
2022-10-06T01:45:05.616Z,91.79
2022-10-06T01:47:35.225Z,91.89
2022-10-06T01:50:06.706Z,91.80
2022-10-06T01:52:36.771Z,92.03
2022-10-06T01:55:08.741Z,92.02
2022-10-06T01:57:40.867Z,92.02
2022-10-06T02:00:12.977Z,92.02
2022-10-06T02:02:42.562Z,92.15
2022-10-06T02:05:12.064Z,92.08
2022-10-06T02:07:44.233Z,91.97
2022-10-06T02:10:17.498Z,92.05
2022-10-06T02:12:52.691Z,92.12
2022-10-06T02:15:23.512Z,92.18
2022-10-06T02:17:53.823Z,91.94
2022-10-06T02:20:22.736Z,92.06
2022-10-06T02:22:51.975Z,91.77
2022-10-06T02:25:22.131Z,91.90
2022-10-06T02:27:51.013Z,92.15
2022-10-06T02:30:19.802Z,92.25
2022-10-06T02:32:49.137Z,92.07
2022-10-06T02:35:18.291Z,92.19
2022-10-06T02:37:47.090Z,92.09
2022-10-06T02:40:19.361Z,92.09
2022-10-06T02:42:49.326Z,91.85
2022-10-06T02:45:20.941Z,92.26
2022-10-06T02:47:49.884Z,92.32
2022-10-06T02:50:18.787Z,92.28
2022-10-06T02:52:47.585Z,92.36
2022-10-06T02:55:16.222Z,92.39
2022-10-06T02:57:44.894Z,92.48
2022-10-06T03:00:16.251Z,92.53
2022-10-06T03:02:49.925Z,92.59
2022-10-06T03:05:18.751Z,92.49
2022-10-06T03:07:47.725Z,92.51
2022-10-06T03:10:16.922Z,92.50
2022-10-06T03:12:45.914Z,92.55
2022-10-06T03:15:16.083Z,92.61
2022-10-06T03:17:44.766Z,92.78
2022-10-06T03:20:13.477Z,92.58
2022-10-06T03:22:42.252Z,92.75
2022-10-06T03:25:11.496Z,92.69
2022-10-06T03:27:41.395Z,92.85
2022-10-06T03:30:11.866Z,92.74
2022-10-06T03:32:42.370Z,92.91
2022-10-06T03:35:12.223Z,92.90
2022-10-06T03:37:41.633Z,92.99
2022-10-06T03:40:11.860Z,93.04
2022-10-06T03:42:40.715Z,92.96
2022-10-06T03:45:11.146Z,93.11
2022-10-06T03:47:41.536Z,92.91
2022-10-06T03:50:11.416Z,92.94
2022-10-06T03:52:40.170Z,92.99
2022-10-06T03:55:10.057Z,92.99
2022-10-06T03:57:39.437Z,92.86
2022-10-06T04:00:09.450Z,92.91
2022-10-06T04:02:42.638Z,93.00
2022-10-06T04:05:11.982Z,93.04
2022-10-06T04:07:40.879Z,93.07
2022-10-06T04:10:11.493Z,93.37
2022-10-06T04:12:40.515Z,93.20
2022-10-06T04:15:10.565Z,93.05
2022-10-06T04:17:39.415Z,93.26
2022-10-06T04:20:10.085Z,93.03
2022-10-06T04:22:39.051Z,93.19
2022-10-06T04:25:09.563Z,93.13
2022-10-06T04:27:39.459Z,93.21
2022-10-06T04:30:12.958Z,93.27
2022-10-06T04:32:42.634Z,93.19
2022-10-06T04:35:13.215Z,93.09
2022-10-06T04:37:41.897Z,93.15
2022-10-06T04:40:11.779Z,93.26
2022-10-06T04:42:41.415Z,93.20
2022-10-06T04:45:14.768Z,93.15
2022-10-06T04:47:44.550Z,93.17
2022-10-06T04:50:15.826Z,93.26
2022-10-06T04:53:04.728Z,93.34
2022-10-06T04:55:36.065Z,93.40
2022-10-06T04:58:05.619Z,93.38
2022-10-06T05:00:34.477Z,93.38
2022-10-06T05:03:03.480Z,93.25
2022-10-06T05:05:33.929Z,93.46
2022-10-06T05:08:06.721Z,93.26
2022-10-06T05:10:35.534Z,93.14
2022-10-06T05:13:06.146Z,93.04
2022-10-06T05:15:35.272Z,93.03
2022-10-06T05:18:04.237Z,92.91
2022-10-06T05:20:34.368Z,92.70
2022-10-06T05:23:07.249Z,92.89
2022-10-06T05:25:36.186Z,92.83
2022-10-06T05:28:05.024Z,92.69
2022-10-06T05:30:33.794Z,92.76
2022-10-06T05:33:03.265Z,92.62
2022-10-06T05:35:33.357Z,92.43
2022-10-06T05:38:02.053Z,92.59
2022-10-06T05:40:30.601Z,92.53
2022-10-06T05:42:59.642Z,92.52
2022-10-06T05:45:28.979Z,92.67
2022-10-06T05:47:57.706Z,92.63
2022-10-06T05:50:26.820Z,92.50
2022-10-06T05:52:57.574Z,92.61
2022-10-06T05:55:26.469Z,92.48
2022-10-06T05:57:56.541Z,92.46
2022-10-06T06:00:25.446Z,92.45
2022-10-06T06:02:54.665Z,92.35
2022-10-06T06:05:23.429Z,92.57
2022-10-06T06:07:52.882Z,92.46
2022-10-06T06:10:23.017Z,92.40
2022-10-06T06:12:52.083Z,92.37
2022-10-06T06:16:02.057Z,92.30
2022-10-06T06:18:33.032Z,92.32
2022-10-06T06:21:04.865Z,92.12
2022-10-06T06:23:36.492Z,92.03
2022-10-06T06:26:10.090Z,92.06
2022-10-06T06:28:46.306Z,92.01
2022-10-06T06:31:20.457Z,91.70
2022-10-06T06:33:54.636Z,91.45
2022-10-06T06:36:28.881Z,91.27
2022-10-06T06:38:59.627Z,91.33
2022-10-06T06:41:34.746Z,91.20
2022-10-06T06:44:11.624Z,90.97
2022-10-06T06:46:49.299Z,90.99
2022-10-06T06:49:39.876Z,91.03
2022-10-06T06:52:10.869Z,91.04
2022-10-06T06:54:42.262Z,90.96
2022-10-06T06:57:16.614Z,90.91
2022-10-06T06:59:46.459Z,90.85
2022-10-06T07:02:17.914Z,90.79
2022-10-06T07:04:48.013Z,90.94
2022-10-06T07:07:19.582Z,90.94
2022-10-06T07:09:48.297Z,90.77
2022-10-06T07:12:20.420Z,90.80
2022-10-06T07:15:12.020Z,90.80
2022-10-06T07:18:00.631Z,90.77
2022-10-06T07:20:48.367Z,90.67
2022-10-06T07:23:39.543Z,90.81
2022-10-06T07:26:13.104Z,90.61
2022-10-06T07:28:43.265Z,90.51
2022-10-06T07:31:14.014Z,90.63
2022-10-06T07:33:48.149Z,90.53
2022-10-06T07:36:17.019Z,90.67
2022-10-06T07:38:47.411Z,90.63
2022-10-06T07:41:20.459Z,90.71
2022-10-06T07:44:02.456Z,90.69
2022-10-06T07:46:35.215Z,90.46
2022-10-06T07:49:12.129Z,90.35
2022-10-06T07:51:41.219Z,90.09
2022-10-06T07:54:09.892Z,90.04
2022-10-06T07:56:48.564Z,89.99
2022-10-06T07:59:21.396Z,90.04
2022-10-06T08:01:52.611Z,89.60
2022-10-06T08:04:21.295Z,89.61
2022-10-06T08:06:50.535Z,89.60
2022-10-06T08:09:19.999Z,89.69
2022-10-06T08:11:49.258Z,89.56
2022-10-06T08:14:20.594Z,89.71
2022-10-06T08:16:49.349Z,89.62
2022-10-06T08:19:19.692Z,89.42
2022-10-06T08:21:48.594Z,89.26
2022-10-06T08:24:17.326Z,89.21
2022-10-06T08:26:46.072Z,89.14
2022-10-06T08:29:14.774Z,89.12
2022-10-06T08:31:45.246Z,88.96
2022-10-06T08:34:14.219Z,88.66
2022-10-06T08:37:02.227Z,88.54
2022-10-06T08:39:32.638Z,88.36
2022-10-06T08:42:01.565Z,88.16
2022-10-06T08:44:35.914Z,88.14
2022-10-06T08:47:13.566Z,88.24
2022-10-06T08:49:46.296Z,88.35
2022-10-06T08:52:41.335Z,88.46
2022-10-06T08:55:31.728Z,88.40
2022-10-06T08:58:31.695Z,88.37
2022-10-06T09:01:17.409Z,88.44
2022-10-06T09:03:51.577Z,88.66
2022-10-06T09:06:47.363Z,88.69
2022-10-06T09:09:34.830Z,88.40
2022-10-06T09:12:18.353Z,88.17
2022-10-06T09:14:53.570Z,88.05
2022-10-06T09:17:29.312Z,88.09
2022-10-06T09:20:06.323Z,87.96
2022-10-06T09:22:38.202Z,87.95
2022-10-06T09:25:18.025Z,87.92
2022-10-06T09:27:54.390Z,87.89
2022-10-06T09:30:24.096Z,88.02
2022-10-06T09:33:00.150Z,87.96
2022-10-06T09:35:33.370Z,87.86
2022-10-06T09:38:08.100Z,87.83
2022-10-06T09:40:42.128Z,87.81
2022-10-06T09:43:25.896Z,87.60
2022-10-06T09:45:55.406Z,87.39
2022-10-06T09:48:26.744Z,87.40
2022-10-06T09:51:15.893Z,87.03
2022-10-06T09:53:45.999Z,86.96
2022-10-06T09:56:19.891Z,86.80
2022-10-06T09:58:57.635Z,86.46
2022-10-06T10:01:29.972Z,86.37
2022-10-06T10:04:19.559Z,86.39
2022-10-06T10:06:51.953Z,86.41
2022-10-06T10:09:29.057Z,86.37
2022-10-06T10:12:28.024Z,86.27
2022-10-06T10:15:02.019Z,86.27
2022-10-06T10:17:43.929Z,86.47
2022-10-06T10:20:34.416Z,86.27
2022-10-06T10:23:23.414Z,86.38
2022-10-06T10:26:14.752Z,86.55
2022-10-06T10:29:32.974Z,86.59
2022-10-06T10:32:13.434Z,86.55
2022-10-06T10:35:02.343Z,86.27
2022-10-06T10:37:43.084Z,86.23
2022-10-06T10:40:29.013Z,86.25
2022-10-06T10:43:15.991Z,86.12
2022-10-06T10:45:49.623Z,86.10
2022-10-06T10:48:30.245Z,86.15
2022-10-06T10:51:08.384Z,86.13
2022-10-06T10:53:51.973Z,86.18
2022-10-06T10:56:26.294Z,86.10
2022-10-06T10:59:04.338Z,85.90
2022-10-06T11:01:42.695Z,85.67
2022-10-06T11:04:15.114Z,85.83
2022-10-06T11:07:13.855Z,85.58
2022-10-06T11:09:56.562Z,85.62
2022-10-06T11:12:45.934Z,85.45
2022-10-06T11:15:27.767Z,85.21
2022-10-06T11:18:12.810Z,85.14
2022-10-06T11:20:49.756Z,85.01
2022-10-06T11:23:48.256Z,84.95
2022-10-06T11:26:41.102Z,84.77
2022-10-06T11:29:34.591Z,84.59
2022-10-06T11:32:22.108Z,84.62
2022-10-06T11:34:51.700Z,84.56
2022-10-06T11:37:36.681Z,84.48
2022-10-06T11:40:39.628Z,84.41
2022-10-06T11:43:19.462Z,84.30
2022-10-06T11:46:01.174Z,84.01
2022-10-06T11:48:32.592Z,83.95
2022-10-06T11:51:32.499Z,84.24
2022-10-06T11:54:01.205Z,84.12
2022-10-06T11:56:41.056Z,84.38
2022-10-06T11:59:31.720Z,83.86
2022-10-06T12:02:03.354Z,84.04
2022-10-06T12:04:32.377Z,84.20
2022-10-06T12:07:05.870Z,84.27
2022-10-06T12:09:52.942Z,83.95
2022-10-06T12:13:06.743Z,84.23
2022-10-06T12:19:27.268Z,84.36
2022-10-06T12:22:08.794Z,84.53
2022-10-06T12:24:44.960Z,84.62
2022-10-06T12:27:50.431Z,84.90
2022-10-06T12:30:25.501Z,84.96
2022-10-06T12:32:57.480Z,84.89
2022-10-06T12:35:33.444Z,85.02
2022-10-06T12:38:06.210Z,85.11
2022-10-06T12:40:56.566Z,85.28
2022-10-06T12:43:50.864Z,85.19
2022-10-06T12:46:46.965Z,85.44
2022-10-06T12:49:44.302Z,85.55
2022-10-06T12:52:39.343Z,85.58
2022-10-06T12:55:32.314Z,85.97
2022-10-06T12:58:01.353Z,86.13
2022-10-06T13:00:37.903Z,86.29
2022-10-06T13:03:09.840Z,86.73
2022-10-06T13:05:38.677Z,87.18
2022-10-06T13:08:23.302Z,87.39
2022-10-06T13:10:55.931Z,87.86
2022-10-06T13:13:27.290Z,88.20
2022-10-06T13:16:00.604Z,88.75
2022-10-06T13:18:30.321Z,88.71
2022-10-06T13:21:01.477Z,88.94
2022-10-06T13:23:35.003Z,88.88
2022-10-06T13:26:07.881Z,88.98
2022-10-06T13:28:51.026Z,89.00
2022-10-06T13:31:23.637Z,88.98
2022-10-06T13:33:58.291Z,89.12
2022-10-06T13:36:31.021Z,89.10
2022-10-06T13:39:01.653Z,89.28
2022-10-06T13:41:33.560Z,89.53
2022-10-06T13:44:17.556Z,89.66
2022-10-06T13:46:50.980Z,89.72
2022-10-06T13:49:28.682Z,89.92
2022-10-06T13:52:04.488Z,89.89
2022-10-06T13:54:42.016Z,90.06
2022-10-06T13:57:40.660Z,90.06
2022-10-06T14:00:20.924Z,90.13
2022-10-06T14:02:54.346Z,90.23
2022-10-06T14:05:31.446Z,90.17
2022-10-06T14:08:03.110Z,89.87
2022-10-06T14:10:51.772Z,89.43
2022-10-06T14:13:26.586Z,89.26
2022-10-06T14:16:02.973Z,89.15
2022-10-06T14:18:40.191Z,89.09
2022-10-06T14:21:20.500Z,89.03
2022-10-06T14:23:52.670Z,88.81
2022-10-06T14:26:27.834Z,88.58
2022-10-06T14:28:57.622Z,88.62
2022-10-06T14:31:28.879Z,88.52
2022-10-06T14:33:58.418Z,88.52
2022-10-06T14:36:30.432Z,88.42
2022-10-06T14:39:00.727Z,88.51
2022-10-06T14:41:32.059Z,88.52
2022-10-06T14:44:05.698Z,88.55
2022-10-06T14:46:35.106Z,88.47
2022-10-06T14:49:07.642Z,88.27
2022-10-06T14:51:37.662Z,88.36
2022-10-06T14:54:10.996Z,88.20
2022-10-06T14:56:42.496Z,88.23
2022-10-06T14:59:19.356Z,88.27
2022-10-06T15:01:50.030Z,88.29
2022-10-06T15:04:24.449Z,88.33
2022-10-06T15:07:10.427Z,88.32
2022-10-06T15:09:39.338Z,88.46
2022-10-06T15:12:09.312Z,88.61
2022-10-06T15:14:39.800Z,89.03
2022-10-06T15:17:09.003Z,89.55
2022-10-06T15:19:37.806Z,89.81
2022-10-06T15:22:08.798Z,89.94
2022-10-06T15:24:37.540Z,90.31
2022-10-06T15:27:25.053Z,88.06
2022-10-06T15:29:56.143Z,87.77
2022-10-06T15:32:25.011Z,87.09
2022-10-06T15:34:54.825Z,87.53
2022-10-06T15:37:23.775Z,87.80
2022-10-06T15:39:53.249Z,87.75
2022-10-06T15:42:24.257Z,87.43
2022-10-06T15:44:54.490Z,87.10
2022-10-06T15:47:24.881Z,86.29
2022-10-06T15:49:53.502Z,85.65
2022-10-06T15:52:22.983Z,85.09
2022-10-06T15:54:53.072Z,84.75
2022-10-06T15:57:22.209Z,84.41
2022-10-06T15:59:51.460Z,83.86
2022-10-06T16:02:23.253Z,83.70
2022-10-06T16:05:18.164Z,83.76
2022-10-06T16:07:46.857Z,83.81
2022-10-06T16:10:16.002Z,83.88
2022-10-06T16:12:44.661Z,83.76
2022-10-06T16:15:13.269Z,83.85
2022-10-06T16:17:43.334Z,83.80
2022-10-06T16:20:12.078Z,83.84
2022-10-06T16:22:41.359Z,83.72
2022-10-06T16:25:10.848Z,83.80
2022-10-06T16:27:40.219Z,83.86
2022-10-06T16:30:10.791Z,83.75
2022-10-06T16:32:39.617Z,83.85
2022-10-06T16:35:14.693Z,83.97
2022-10-06T16:37:49.858Z,83.87
2022-10-06T16:40:19.074Z,83.81
2022-10-06T16:42:47.963Z,84.05
2022-10-06T16:45:16.921Z,83.93
2022-10-06T16:47:46.159Z,83.95
2022-10-06T16:50:16.496Z,83.92
2022-10-06T16:52:45.499Z,84.10
2022-10-06T16:55:14.518Z,84.04
2022-10-06T16:57:43.190Z,84.01
2022-10-06T17:00:13.957Z,84.31
2022-10-06T17:02:42.727Z,84.16
2022-10-06T17:05:11.336Z,84.12
2022-10-06T17:07:42.452Z,83.96
2022-10-06T17:10:26.070Z,83.89
2022-10-06T17:12:55.032Z,84.05
2022-10-06T17:15:23.712Z,83.95
2022-10-06T17:17:55.472Z,83.85
2022-10-06T17:20:24.165Z,83.81
2022-10-06T17:22:54.300Z,83.70
2022-10-06T17:25:23.176Z,83.86
2022-10-06T17:27:51.952Z,83.95
2022-10-06T17:30:20.854Z,83.93
2022-10-06T17:32:49.842Z,84.24
2022-10-06T17:35:20.865Z,84.48
2022-10-06T17:37:50.435Z,84.87
2022-10-06T17:40:20.823Z,85.18
2022-10-06T17:42:49.902Z,85.09
2022-10-06T17:45:21.229Z,84.93
2022-10-06T17:47:51.936Z,84.83
2022-10-06T17:50:21.010Z,84.57
2022-10-06T17:52:50.468Z,84.68
2022-10-06T17:55:21.580Z,84.67
2022-10-06T17:57:50.552Z,84.39
2022-10-06T18:00:19.924Z,84.36
2022-10-06T18:02:49.092Z,84.26
2022-10-06T18:05:19.232Z,84.30
2022-10-06T18:07:48.383Z,84.01
2022-10-06T18:10:40.781Z,83.75
2022-10-06T18:13:11.475Z,83.65
2022-10-06T18:15:40.843Z,83.73
2022-10-06T18:18:12.485Z,83.79
2022-10-06T18:20:42.008Z,83.56
2022-10-06T18:23:11.094Z,83.55
2022-10-06T18:25:40.399Z,83.52
2022-10-06T18:28:12.294Z,83.48
2022-10-06T18:30:41.863Z,83.48
2022-10-06T18:36:18.137Z,83.16
2022-10-06T18:38:47.714Z,83.20
2022-10-06T18:41:20.446Z,82.71
2022-10-06T18:43:53.113Z,82.82
2022-10-06T18:46:40.324Z,82.81
2022-10-06T18:49:12.862Z,83.11
2022-10-06T18:51:53.597Z,82.80
2022-10-06T18:54:30.325Z,82.85
2022-10-06T18:57:01.238Z,83.08
2022-10-06T18:59:33.682Z,83.13
2022-10-06T19:02:03.258Z,83.24
2022-10-06T19:04:36.469Z,83.29
2022-10-06T19:07:05.642Z,83.22
2022-10-06T19:09:34.890Z,83.12
2022-10-06T19:12:05.993Z,83.16
2022-10-06T19:14:43.115Z,82.94
2022-10-06T19:17:17.361Z,83.05
2022-10-06T19:19:51.689Z,82.76
2022-10-06T19:22:27.077Z,82.76
2022-10-06T19:24:59.066Z,82.85
2022-10-06T19:27:34.212Z,82.76
2022-10-06T19:30:10.520Z,82.56
2022-10-06T19:32:40.996Z,82.61
2022-10-06T19:35:11.036Z,82.67
2022-10-06T19:37:41.740Z,82.81
2022-10-06T19:40:12.053Z,82.78
2022-10-06T19:42:49.581Z,82.73
2022-10-06T19:45:22.278Z,82.57
2022-10-06T19:47:51.721Z,82.67
2022-10-06T19:50:21.641Z,82.53
2022-10-06T19:52:51.878Z,82.69
2022-10-06T19:55:23.951Z,83.16
2022-10-06T19:57:53.599Z,83.20
2022-10-06T20:00:25.897Z,83.37
2022-10-06T20:02:57.411Z,83.56
2022-10-06T20:05:26.603Z,83.82
2022-10-06T20:07:56.499Z,83.77
2022-10-06T20:10:25.574Z,83.85
2022-10-06T20:12:54.517Z,83.95
2022-10-06T20:15:24.961Z,83.91
2022-10-06T20:17:53.729Z,83.94
2022-10-06T20:20:57.308Z,83.78
2022-10-06T20:23:26.358Z,83.82
2022-10-06T20:25:55.174Z,83.76
2022-10-06T20:28:23.927Z,84.12
2022-10-06T20:30:54.200Z,84.23
2022-10-06T20:33:23.087Z,83.98
2022-10-06T20:35:52.149Z,84.22
2022-10-06T20:38:40.867Z,84.24
2022-10-06T20:41:08.496Z,84.43
2022-10-06T20:43:38.064Z,84.57
2022-10-06T20:46:08.551Z,84.53
2022-10-06T20:48:37.522Z,84.66
2022-10-06T20:51:12.438Z,84.77
2022-10-06T20:53:41.574Z,85.37
2022-10-06T20:56:11.220Z,85.34
2022-10-06T20:58:40.006Z,85.48
2022-10-06T21:01:13.260Z,85.39
2022-10-06T21:03:47.563Z,85.51
2022-10-06T21:06:19.018Z,85.62
2022-10-06T21:08:49.524Z,85.68
2022-10-06T21:11:21.485Z,85.59
2022-10-06T21:13:53.431Z,85.68
2022-10-06T21:16:26.635Z,85.73
2022-10-06T21:18:55.391Z,85.68
2022-10-06T21:21:25.068Z,85.64
2022-10-06T21:23:56.388Z,85.57
2022-10-06T21:26:27.291Z,85.27
2022-10-06T21:28:56.686Z,85.27
2022-10-06T21:31:29.012Z,85.16
2022-10-06T21:33:59.253Z,85.00
2022-10-06T21:36:32.193Z,84.93
2022-10-06T21:39:04.528Z,84.91
2022-10-06T21:41:38.701Z,84.73
2022-10-06T21:44:10.035Z,84.45
2022-10-06T21:46:42.616Z,84.57
2022-10-06T21:49:14.518Z,84.57
2022-10-06T21:51:46.392Z,84.56
2022-10-06T21:54:16.285Z,84.56
2022-10-06T21:56:45.003Z,84.50
2022-10-06T21:59:14.151Z,84.45
2022-10-06T22:01:46.747Z,84.48
2022-10-06T22:04:16.701Z,84.54
2022-10-06T22:06:50.149Z,84.70
2022-10-06T22:09:21.279Z,84.82
2022-10-06T22:11:51.043Z,84.94
2022-10-06T22:14:21.169Z,84.80
2022-10-06T22:16:51.359Z,84.99
2022-10-06T22:19:20.275Z,84.74
2022-10-06T22:21:50.121Z,85.00
2022-10-06T22:24:22.082Z,85.00
2022-10-06T22:26:51.444Z,84.77
2022-10-06T22:29:21.771Z,84.87
2022-10-06T22:31:52.208Z,84.86
2022-10-06T22:34:22.236Z,85.08
2022-10-06T22:36:50.920Z,85.04
2022-10-06T22:39:19.762Z,85.00
2022-10-06T22:41:48.451Z,85.03
2022-10-06T22:44:17.112Z,84.75
2022-10-06T22:46:45.816Z,84.81
2022-10-06T22:49:15.918Z,84.89
2022-10-06T22:51:44.709Z,84.60
2022-10-06T22:54:19.797Z,84.61
2022-10-06T22:56:48.319Z,84.28
2022-10-06T22:59:16.927Z,84.20
2022-10-06T23:01:45.601Z,84.03
2022-10-06T23:04:15.927Z,84.07
2022-10-06T23:06:44.608Z,83.99
2022-10-06T23:09:13.387Z,83.88
2022-10-06T23:11:42.180Z,83.95
2022-10-06T23:14:10.817Z,83.95
2022-10-06T23:16:39.599Z,83.96
2022-10-06T23:19:08.346Z,83.90
2022-10-06T23:21:40.301Z,83.85
2022-10-06T23:24:09.320Z,83.98
2022-10-06T23:26:37.969Z,84.04
2022-10-06T23:29:07.506Z,84.01
2022-10-06T23:31:36.248Z,84.08
2022-10-06T23:34:05.074Z,84.09
2022-10-06T23:36:33.772Z,84.09
2022-10-06T23:39:03.892Z,84.19
2022-10-06T23:41:32.488Z,84.05
2022-10-06T23:44:01.413Z,84.21
2022-10-06T23:46:30.015Z,83.99
2022-10-06T23:48:58.824Z,83.93
2022-10-06T23:51:27.729Z,83.80
2022-10-06T23:53:56.572Z,83.83
2022-10-06T23:56:26.844Z,83.89
2022-10-06T23:58:55.551Z,83.85
